EINN - Shannon Airport
Distance from station: E 5mi, 14km
Updated: 12/18/2017 2:30am
Partly Cloudy
Partly Cloudy
 Wind from ESE
Wind: ESE 8 mph , 13 km/h
Temperature: 41°F , 5°C
Wind Chill: 36°F , 2°C
Dew Point: 41°F , 5°C
Humidity: 100%
Barometer: 30.39 inHg , 1029 hPa
Clouds: Partly Cloudy
Visibility: 6 miles , 10 km
Cloud details: Few Clouds 400 ft
Partly Cloudy 25000 ft
2017/12/18 10:30 EINN 181030Z 12007KT 9999 FEW004 SCT250 05/05 Q1029 NOSIG